sensor_id;sensor_type;location;lat;lon;timestamp;temperature;humidity
28969;DHT22;16076;51.194;6.642;2022-11-20T00:01:19;5.80;99.90
28969;DHT22;16076;51.194;6.642;2022-11-20T00:03:46;5.80;99.90
28969;DHT22;16076;51.194;6.642;2022-11-20T00:06:17;5.70;99.90
28969;DHT22;16076;51.194;6.642;2022-11-20T00:08:43;5.70;99.90
28969;DHT22;16076;51.194;6.642;2022-11-20T00:11:12;5.70;99.90
28969;DHT22;16076;51.194;6.642;2022-11-20T00:13:38;5.70;99.90
28969;DHT22;16076;51.194;6.642;2022-11-20T00:16:07;5.80;99.90
28969;DHT22;16076;51.194;6.642;2022-11-20T00:18:33;5.90;99.90
28969;DHT22;16076;51.194;6.642;2022-11-20T00:21:09;5.90;99.90
28969;DHT22;16076;51.194;6.642;2022-11-20T00:23:37;5.80;99.90
28969;DHT22;16076;51.194;6.642;2022-11-20T00:26:08;5.70;99.90
28969;DHT22;16076;51.194;6.642;2022-11-20T00:28:35;5.70;99.90
28969;DHT22;16076;51.194;6.642;2022-11-20T00:33:28;5.80;99.90
28969;DHT22;16076;51.194;6.642;2022-11-20T00:35:56;5.80;99.90
28969;DHT22;16076;51.194;6.642;2022-11-20T00:38:26;5.80;99.90
28969;DHT22;16076;51.194;6.642;2022-11-20T00:41:00;5.80;99.90
28969;DHT22;16076;51.194;6.642;2022-11-20T00:43:28;5.80;99.90
28969;DHT22;16076;51.194;6.642;2022-11-20T00:46:01;5.80;99.90
28969;DHT22;16076;51.194;6.642;2022-11-20T00:48:27;5.80;99.90
28969;DHT22;16076;51.194;6.642;2022-11-20T00:50:56;5.90;99.90
28969;DHT22;16076;51.194;6.642;2022-11-20T00:53:22;5.90;99.90
28969;DHT22;16076;51.194;6.642;2022-11-20T00:56:03;5.90;99.90
28969;DHT22;16076;51.194;6.642;2022-11-20T00:58:34;5.90;99.90
28969;DHT22;16076;51.194;6.642;2022-11-20T01:03:34;5.90;99.90
28969;DHT22;16076;51.194;6.642;2022-11-20T01:06:24;5.90;99.90
28969;DHT22;16076;51.194;6.642;2022-11-20T01:08:54;5.90;99.90
28969;DHT22;16076;51.194;6.642;2022-11-20T01:11:27;5.90;99.90
28969;DHT22;16076;51.194;6.642;2022-11-20T01:13:54;5.90;99.90
28969;DHT22;16076;51.194;6.642;2022-11-20T01:16:26;5.90;99.90
28969;DHT22;16076;51.194;6.642;2022-11-20T01:18:54;5.90;99.90
28969;DHT22;16076;51.194;6.642;2022-11-20T01:21:25;5.80;99.90
28969;DHT22;16076;51.194;6.642;2022-11-20T01:23:52;5.80;99.90
28969;DHT22;16076;51.194;6.642;2022-11-20T01:26:32;5.80;99.90
28969;DHT22;16076;51.194;6.642;2022-11-20T01:28:59;5.70;99.90
28969;DHT22;16076;51.194;6.642;2022-11-20T01:31:33;5.70;99.90
28969;DHT22;16076;51.194;6.642;2022-11-20T01:34:05;5.70;99.90
28969;DHT22;16076;51.194;6.642;2022-11-20T01:36:34;5.70;99.90
28969;DHT22;16076;51.194;6.642;2022-11-20T01:39:03;5.80;99.90
28969;DHT22;16076;51.194;6.642;2022-11-20T01:41:30;5.80;99.90
28969;DHT22;16076;51.194;6.642;2022-11-20T01:44:18;5.80;99.90
28969;DHT22;16076;51.194;6.642;2022-11-20T01:46:57;5.80;99.90
28969;DHT22;16076;51.194;6.642;2022-11-20T01:52:05;5.70;99.90
28969;DHT22;16076;51.194;6.642;2022-11-20T01:54:47;5.70;99.90
28969;DHT22;16076;51.194;6.642;2022-11-20T01:57:17;5.60;99.90
28969;DHT22;16076;51.194;6.642;2022-11-20T01:59:53;5.30;99.90
28969;DHT22;16076;51.194;6.642;2022-11-20T02:02:22;4.90;99.90
28969;DHT22;16076;51.194;6.642;2022-11-20T02:04:49;4.70;99.90
28969;DHT22;16076;51.194;6.642;2022-11-20T02:07:20;4.50;99.90
28969;DHT22;16076;51.194;6.642;2022-11-20T02:09:48;4.20;99.90
28969;DHT22;16076;51.194;6.642;2022-11-20T02:12:14;4.00;99.90
28969;DHT22;16076;51.194;6.642;2022-11-20T02:15:08;4.00;99.90
28969;DHT22;16076;51.194;6.642;2022-11-20T02:17:36;3.90;99.90
28969;DHT22;16076;51.194;6.642;2022-11-20T02:20:03;3.80;99.90
28969;DHT22;16076;51.194;6.642;2022-11-20T02:22:47;3.80;99.90
28969;DHT22;16076;51.194;6.642;2022-11-20T02:25:14;3.80;99.90
28969;DHT22;16076;51.194;6.642;2022-11-20T02:27:43;3.70;99.90
28969;DHT22;16076;51.194;6.642;2022-11-20T02:30:11;3.50;99.90
28969;DHT22;16076;51.194;6.642;2022-11-20T02:32:40;3.40;99.90
28969;DHT22;16076;51.194;6.642;2022-11-20T02:35:09;3.40;99.90
28969;DHT22;16076;51.194;6.642;2022-11-20T02:37:38;3.30;99.90
28969;DHT22;16076;51.194;6.642;2022-11-20T02:40:05;3.30;99.90
28969;DHT22;16076;51.194;6.642;2022-11-20T02:42:31;3.20;99.90
28969;DHT22;16076;51.194;6.642;2022-11-20T02:44:57;3.20;99.90
28969;DHT22;16076;51.194;6.642;2022-11-20T02:47:22;3.10;99.90
28969;DHT22;16076;51.194;6.642;2022-11-20T02:49:48;3.10;99.90
28969;DHT22;16076;51.194;6.642;2022-11-20T02:52:14;3.10;99.90
28969;DHT22;16076;51.194;6.642;2022-11-20T02:54:39;3.10;99.90
28969;DHT22;16076;51.194;6.642;2022-11-20T02:57:05;3.00;99.90
28969;DHT22;16076;51.194;6.642;2022-11-20T02:59:33;3.00;99.90
28969;DHT22;16076;51.194;6.642;2022-11-20T03:01:59;2.80;99.90
28969;DHT22;16076;51.194;6.642;2022-11-20T03:04:25;2.70;99.90
28969;DHT22;16076;51.194;6.642;2022-11-20T03:06:51;2.60;99.90
28969;DHT22;16076;51.194;6.642;2022-11-20T03:09:17;2.60;99.90
28969;DHT22;16076;51.194;6.642;2022-11-20T03:11:42;2.70;99.90
28969;DHT22;16076;51.194;6.642;2022-11-20T03:14:10;2.70;99.90
28969;DHT22;16076;51.194;6.642;2022-11-20T03:16:36;2.70;99.90
28969;DHT22;16076;51.194;6.642;2022-11-20T03:19:02;2.70;99.90
28969;DHT22;16076;51.194;6.642;2022-11-20T03:21:30;2.60;99.90
28969;DHT22;16076;51.194;6.642;2022-11-20T03:24:00;2.60;99.90
28969;DHT22;16076;51.194;6.642;2022-11-20T03:26:27;2.50;99.90
28969;DHT22;16076;51.194;6.642;2022-11-20T03:28:58;2.50;99.90
28969;DHT22;16076;51.194;6.642;2022-11-20T03:31:35;2.60;99.90
28969;DHT22;16076;51.194;6.642;2022-11-20T03:34:06;2.60;99.90
28969;DHT22;16076;51.194;6.642;2022-11-20T03:36:33;2.70;99.90
28969;DHT22;16076;51.194;6.642;2022-11-20T03:38:59;2.60;99.90
28969;DHT22;16076;51.194;6.642;2022-11-20T03:41:30;2.60;99.90
28969;DHT22;16076;51.194;6.642;2022-11-20T03:44:01;2.60;99.90
28969;DHT22;16076;51.194;6.642;2022-11-20T03:46:29;2.60;99.90
28969;DHT22;16076;51.194;6.642;2022-11-20T03:48:58;2.60;99.90
28969;DHT22;16076;51.194;6.642;2022-11-20T03:51:26;2.60;99.90
28969;DHT22;16076;51.194;6.642;2022-11-20T03:53:55;2.60;99.90
28969;DHT22;16076;51.194;6.642;2022-11-20T03:56:26;2.60;99.90
28969;DHT22;16076;51.194;6.642;2022-11-20T03:58:52;2.70;99.90
28969;DHT22;16076;51.194;6.642;2022-11-20T04:01:21;2.80;99.90
28969;DHT22;16076;51.194;6.642;2022-11-20T04:03:47;2.80;99.90
28969;DHT22;16076;51.194;6.642;2022-11-20T04:06:16;2.80;99.90
28969;DHT22;16076;51.194;6.642;2022-11-20T04:08:45;2.70;99.90
28969;DHT22;16076;51.194;6.642;2022-11-20T04:11:16;2.70;99.90
28969;DHT22;16076;51.194;6.642;2022-11-20T04:13:45;2.70;99.90
28969;DHT22;16076;51.194;6.642;2022-11-20T04:16:19;2.70;99.90
28969;DHT22;16076;51.194;6.642;2022-11-20T04:18:52;2.80;99.90
28969;DHT22;16076;51.194;6.642;2022-11-20T04:21:18;2.90;99.90
28969;DHT22;16076;51.194;6.642;2022-11-20T04:23:44;3.00;99.90
28969;DHT22;16076;51.194;6.642;2022-11-20T04:26:11;3.00;99.90
28969;DHT22;16076;51.194;6.642;2022-11-20T04:28:38;3.10;99.90
28969;DHT22;16076;51.194;6.642;2022-11-20T04:31:06;3.20;99.90
28969;DHT22;16076;51.194;6.642;2022-11-20T04:33:33;3.30;99.90
28969;DHT22;16076;51.194;6.642;2022-11-20T04:36:20;3.40;99.90
28969;DHT22;16076;51.194;6.642;2022-11-20T04:38:50;3.50;99.90
28969;DHT22;16076;51.194;6.642;2022-11-20T04:41:18;3.60;99.90
28969;DHT22;16076;51.194;6.642;2022-11-20T04:43:53;3.70;99.90
28969;DHT22;16076;51.194;6.642;2022-11-20T04:46:20;3.70;99.90
28969;DHT22;16076;51.194;6.642;2022-11-20T04:48:46;3.80;99.90
28969;DHT22;16076;51.194;6.642;2022-11-20T04:51:12;3.80;99.90
28969;DHT22;16076;51.194;6.642;2022-11-20T04:53:40;3.90;99.90
28969;DHT22;16076;51.194;6.642;2022-11-20T04:56:07;4.00;99.90
28969;DHT22;16076;51.194;6.642;2022-11-20T04:58:34;4.00;99.90
28969;DHT22;16076;51.194;6.642;2022-11-20T05:03:39;4.10;99.90
28969;DHT22;16076;51.194;6.642;2022-11-20T05:06:06;4.10;99.90
28969;DHT22;16076;51.194;6.642;2022-11-20T05:08:33;4.20;99.90
28969;DHT22;16076;51.194;6.642;2022-11-20T05:13:37;4.20;99.90
28969;DHT22;16076;51.194;6.642;2022-11-20T05:16:06;4.30;99.90
28969;DHT22;16076;51.194;6.642;2022-11-20T05:18:33;4.20;99.90
28969;DHT22;16076;51.194;6.642;2022-11-20T05:21:01;4.20;99.90
28969;DHT22;16076;51.194;6.642;2022-11-20T05:23:28;4.10;99.90
28969;DHT22;16076;51.194;6.642;2022-11-20T05:25:55;4.10;99.90
28969;DHT22;16076;51.194;6.642;2022-11-20T05:28:23;4.10;99.90
28969;DHT22;16076;51.194;6.642;2022-11-20T05:30:50;4.20;99.90
28969;DHT22;16076;51.194;6.642;2022-11-20T05:33:16;4.20;99.90
28969;DHT22;16076;51.194;6.642;2022-11-20T05:35:43;4.30;99.90
28969;DHT22;16076;51.194;6.642;2022-11-20T05:38:08;4.30;99.90
28969;DHT22;16076;51.194;6.642;2022-11-20T05:40:34;4.30;99.90
28969;DHT22;16076;51.194;6.642;2022-11-20T05:43:00;4.30;99.90
28969;DHT22;16076;51.194;6.642;2022-11-20T05:45:26;4.30;99.90
28969;DHT22;16076;51.194;6.642;2022-11-20T05:47:52;4.30;99.90
28969;DHT22;16076;51.194;6.642;2022-11-20T05:50:20;4.30;99.90
28969;DHT22;16076;51.194;6.642;2022-11-20T05:52:46;4.40;99.90
28969;DHT22;16076;51.194;6.642;2022-11-20T05:55:14;4.40;99.90
28969;DHT22;16076;51.194;6.642;2022-11-20T05:57:42;4.40;99.90
28969;DHT22;16076;51.194;6.642;2022-11-20T06:00:08;4.50;99.90
28969;DHT22;16076;51.194;6.642;2022-11-20T06:02:35;4.40;99.90
28969;DHT22;16076;51.194;6.642;2022-11-20T06:05:01;4.50;99.90
28969;DHT22;16076;51.194;6.642;2022-11-20T06:07:27;4.40;99.90
28969;DHT22;16076;51.194;6.642;2022-11-20T06:09:55;4.40;99.90
28969;DHT22;16076;51.194;6.642;2022-11-20T06:12:21;4.40;99.90
28969;DHT22;16076;51.194;6.642;2022-11-20T06:14:46;4.40;99.90
28969;DHT22;16076;51.194;6.642;2022-11-20T06:17:12;4.50;99.90
28969;DHT22;16076;51.194;6.642;2022-11-20T06:19:38;4.50;99.90
28969;DHT22;16076;51.194;6.642;2022-11-20T06:22:04;4.50;99.90
28969;DHT22;16076;51.194;6.642;2022-11-20T06:24:29;4.40;99.90
28969;DHT22;16076;51.194;6.642;2022-11-20T06:26:55;4.30;99.90
28969;DHT22;16076;51.194;6.642;2022-11-20T06:29:21;4.30;99.90
28969;DHT22;16076;51.194;6.642;2022-11-20T06:31:47;4.20;99.90
28969;DHT22;16076;51.194;6.642;2022-11-20T06:34:17;4.10;99.90
28969;DHT22;16076;51.194;6.642;2022-11-20T06:36:43;3.90;99.90
28969;DHT22;16076;51.194;6.642;2022-11-20T06:39:08;3.80;99.90
28969;DHT22;16076;51.194;6.642;2022-11-20T06:41:34;3.70;99.90
28969;DHT22;16076;51.194;6.642;2022-11-20T06:44:03;3.50;99.90
28969;DHT22;16076;51.194;6.642;2022-11-20T06:46:31;3.60;99.90
28969;DHT22;16076;51.194;6.642;2022-11-20T06:48:56;3.60;99.90
28969;DHT22;16076;51.194;6.642;2022-11-20T06:51:23;3.70;99.90
28969;DHT22;16076;51.194;6.642;2022-11-20T06:53:49;3.90;99.90
28969;DHT22;16076;51.194;6.642;2022-11-20T06:56:15;3.90;99.90
28969;DHT22;16076;51.194;6.642;2022-11-20T06:58:41;4.00;99.90
28969;DHT22;16076;51.194;6.642;2022-11-20T07:01:12;4.10;99.90
28969;DHT22;16076;51.194;6.642;2022-11-20T07:03:38;4.20;99.90
28969;DHT22;16076;51.194;6.642;2022-11-20T07:06:07;4.20;99.90
28969;DHT22;16076;51.194;6.642;2022-11-20T07:08:33;4.30;99.90
28969;DHT22;16076;51.194;6.642;2022-11-20T07:11:05;4.20;99.90
28969;DHT22;16076;51.194;6.642;2022-11-20T07:13:31;4.10;99.90
28969;DHT22;16076;51.194;6.642;2022-11-20T07:16:01;4.10;99.90
28969;DHT22;16076;51.194;6.642;2022-11-20T07:18:27;4.00;99.90
28969;DHT22;16076;51.194;6.642;2022-11-20T07:20:53;4.00;99.90
28969;DHT22;16076;51.194;6.642;2022-11-20T07:23:19;4.00;99.90
28969;DHT22;16076;51.194;6.642;2022-11-20T07:25:44;4.10;99.90
28969;DHT22;16076;51.194;6.642;2022-11-20T07:28:12;4.20;99.90
28969;DHT22;16076;51.194;6.642;2022-11-20T07:30:39;4.40;99.90
28969;DHT22;16076;51.194;6.642;2022-11-20T07:33:05;4.50;99.90
28969;DHT22;16076;51.194;6.642;2022-11-20T07:35:30;4.70;99.90
28969;DHT22;16076;51.194;6.642;2022-11-20T07:37:56;4.70;99.90
28969;DHT22;16076;51.194;6.642;2022-11-20T07:40:22;4.70;99.90
28969;DHT22;16076;51.194;6.642;2022-11-20T07:42:54;4.70;99.90
28969;DHT22;16076;51.194;6.642;2022-11-20T07:45:24;4.70;99.90
28969;DHT22;16076;51.194;6.642;2022-11-20T07:47:51;4.70;99.90
28969;DHT22;16076;51.194;6.642;2022-11-20T07:50:17;4.70;99.90
28969;DHT22;16076;51.194;6.642;2022-11-20T07:52:43;4.70;99.90
28969;DHT22;16076;51.194;6.642;2022-11-20T07:55:11;4.80;99.90
28969;DHT22;16076;51.194;6.642;2022-11-20T07:57:37;4.80;99.90
28969;DHT22;16076;51.194;6.642;2022-11-20T08:00:04;4.90;99.90
28969;DHT22;16076;51.194;6.642;2022-11-20T08:02:32;5.00;99.90
28969;DHT22;16076;51.194;6.642;2022-11-20T08:04:58;5.10;99.90
28969;DHT22;16076;51.194;6.642;2022-11-20T08:07:24;5.10;99.90
28969;DHT22;16076;51.194;6.642;2022-11-20T08:09:49;5.20;99.90
28969;DHT22;16076;51.194;6.642;2022-11-20T08:12:22;5.30;99.90
28969;DHT22;16076;51.194;6.642;2022-11-20T08:15:10;5.40;99.90
28969;DHT22;16076;51.194;6.642;2022-11-20T08:17:35;5.50;99.90
28969;DHT22;16076;51.194;6.642;2022-11-20T08:20:01;5.50;99.90
28969;DHT22;16076;51.194;6.642;2022-11-20T08:22:27;5.60;99.90
28969;DHT22;16076;51.194;6.642;2022-11-20T08:24:53;5.60;99.90
28969;DHT22;16076;51.194;6.642;2022-11-20T08:27:20;5.70;99.90
28969;DHT22;16076;51.194;6.642;2022-11-20T08:29:46;5.70;99.90
28969;DHT22;16076;51.194;6.642;2022-11-20T08:32:14;5.70;99.90
28969;DHT22;16076;51.194;6.642;2022-11-20T08:34:40;5.80;99.90
28969;DHT22;16076;51.194;6.642;2022-11-20T08:37:08;5.80;99.90
28969;DHT22;16076;51.194;6.642;2022-11-20T08:39:34;5.80;99.90
28969;DHT22;16076;51.194;6.642;2022-11-20T08:41:59;5.80;99.90
28969;DHT22;16076;51.194;6.642;2022-11-20T08:44:25;5.80;99.90
28969;DHT22;16076;51.194;6.642;2022-11-20T08:46:51;5.80;99.90
28969;DHT22;16076;51.194;6.642;2022-11-20T08:49:17;5.80;99.90
28969;DHT22;16076;51.194;6.642;2022-11-20T08:51:43;5.90;99.90
28969;DHT22;16076;51.194;6.642;2022-11-20T08:54:09;6.00;99.90
28969;DHT22;16076;51.194;6.642;2022-11-20T08:56:37;6.00;99.90
28969;DHT22;16076;51.194;6.642;2022-11-20T08:59:02;5.90;99.90
28969;DHT22;16076;51.194;6.642;2022-11-20T09:01:29;6.00;99.90
28969;DHT22;16076;51.194;6.642;2022-11-20T09:03:56;6.00;99.90
28969;DHT22;16076;51.194;6.642;2022-11-20T09:06:22;6.10;99.90
28969;DHT22;16076;51.194;6.642;2022-11-20T09:08:52;6.30;99.90
28969;DHT22;16076;51.194;6.642;2022-11-20T09:11:21;6.30;99.90
28969;DHT22;16076;51.194;6.642;2022-11-20T09:13:47;6.40;99.90
28969;DHT22;16076;51.194;6.642;2022-11-20T09:16:15;6.50;99.90
28969;DHT22;16076;51.194;6.642;2022-11-20T09:18:40;6.60;99.90
28969;DHT22;16076;51.194;6.642;2022-11-20T09:21:09;6.60;99.90
28969;DHT22;16076;51.194;6.642;2022-11-20T09:23:39;6.50;99.90
28969;DHT22;16076;51.194;6.642;2022-11-20T09:26:09;6.60;99.90
28969;DHT22;16076;51.194;6.642;2022-11-20T09:28:35;6.70;99.90
28969;DHT22;16076;51.194;6.642;2022-11-20T09:31:05;6.70;99.90
28969;DHT22;16076;51.194;6.642;2022-11-20T09:33:31;6.80;99.90
28969;DHT22;16076;51.194;6.642;2022-11-20T09:35:57;6.70;99.90
28969;DHT22;16076;51.194;6.642;2022-11-20T09:38:23;6.80;99.90
28969;DHT22;16076;51.194;6.642;2022-11-20T09:41:05;6.90;99.90
28969;DHT22;16076;51.194;6.642;2022-11-20T09:43:58;7.00;99.90
28969;DHT22;16076;51.194;6.642;2022-11-20T09:46:53;7.00;99.90
28969;DHT22;16076;51.194;6.642;2022-11-20T09:52:01;7.50;99.90
28969;DHT22;16076;51.194;6.642;2022-11-20T09:54:41;7.70;99.90
28969;DHT22;16076;51.194;6.642;2022-11-20T09:57:18;7.90;99.90
28969;DHT22;16076;51.194;6.642;2022-11-20T09:59:55;8.00;99.90
28969;DHT22;16076;51.194;6.642;2022-11-20T10:04:59;8.00;99.90
28969;DHT22;16076;51.194;6.642;2022-11-20T10:07:36;8.00;99.90
28969;DHT22;16076;51.194;6.642;2022-11-20T10:10:19;8.10;99.90
28969;DHT22;16076;51.194;6.642;2022-11-20T10:13:06;8.10;99.90
28969;DHT22;16076;51.194;6.642;2022-11-20T10:15:57;8.10;99.90
28969;DHT22;16076;51.194;6.642;2022-11-20T10:29:24;7.70;99.90
28969;DHT22;16076;51.194;6.642;2022-11-20T10:32:07;7.50;99.90
28969;DHT22;16076;51.194;6.642;2022-11-20T10:34:52;7.70;99.90
28969;DHT22;16076;51.194;6.642;2022-11-20T10:37:27;8.00;99.90
28969;DHT22;16076;51.194;6.642;2022-11-20T10:42:37;8.20;99.90
28969;DHT22;16076;51.194;6.642;2022-11-20T10:48:32;8.40;99.90
28969;DHT22;16076;51.194;6.642;2022-11-20T10:56:16;8.00;99.90
28969;DHT22;16076;51.194;6.642;2022-11-20T10:59:02;8.10;99.90
28969;DHT22;16076;51.194;6.642;2022-11-20T11:01:42;8.10;99.90
28969;DHT22;16076;51.194;6.642;2022-11-20T11:04:45;8.00;99.90
28969;DHT22;16076;51.194;6.642;2022-11-20T11:07:20;7.70;99.90
28969;DHT22;16076;51.194;6.642;2022-11-20T11:09:50;7.80;99.90
28969;DHT22;16076;51.194;6.642;2022-11-20T11:12:17;8.00;99.90
28969;DHT22;16076;51.194;6.642;2022-11-20T11:14:48;8.00;99.90
28969;DHT22;16076;51.194;6.642;2022-11-20T11:20:16;8.10;99.90
28969;DHT22;16076;51.194;6.642;2022-11-20T11:22:47;8.20;99.90
28969;DHT22;16076;51.194;6.642;2022-11-20T11:27:51;8.30;99.90
28969;DHT22;16076;51.194;6.642;2022-11-20T11:30:18;8.10;99.90
28969;DHT22;16076;51.194;6.642;2022-11-20T11:32:47;7.90;99.90
28969;DHT22;16076;51.194;6.642;2022-11-20T11:35:27;7.80;99.90
28969;DHT22;16076;51.194;6.642;2022-11-20T11:38:03;8.00;99.90
28969;DHT22;16076;51.194;6.642;2022-11-20T11:40:31;7.80;99.90
28969;DHT22;16076;51.194;6.642;2022-11-20T11:43:01;7.90;99.90
28969;DHT22;16076;51.194;6.642;2022-11-20T11:45:27;7.80;99.90
28969;DHT22;16076;51.194;6.642;2022-11-20T11:47:58;7.70;99.90
28969;DHT22;16076;51.194;6.642;2022-11-20T11:50:28;7.60;99.90
28969;DHT22;16076;51.194;6.642;2022-11-20T12:00:45;7.90;99.90
28969;DHT22;16076;51.194;6.642;2022-11-20T12:03:18;8.00;99.90
28969;DHT22;16076;51.194;6.642;2022-11-20T12:05:49;8.10;99.90
28969;DHT22;16076;51.194;6.642;2022-11-20T12:13:53;7.70;99.90
28969;DHT22;16076;51.194;6.642;2022-11-20T12:16:20;7.60;99.90
28969;DHT22;16076;51.194;6.642;2022-11-20T12:18:51;7.60;99.90
28969;DHT22;16076;51.194;6.642;2022-11-20T12:24:02;7.90;99.90
28969;DHT22;16076;51.194;6.642;2022-11-20T12:35:04;7.60;99.90
28969;DHT22;16076;51.194;6.642;2022-11-20T12:37:53;7.50;99.90
28969;DHT22;16076;51.194;6.642;2022-11-20T12:40:46;7.30;99.90
28969;DHT22;16076;51.194;6.642;2022-11-20T12:43:21;7.40;99.90
28969;DHT22;16076;51.194;6.642;2022-11-20T12:51:51;7.40;99.90
28969;DHT22;16076;51.194;6.642;2022-11-20T12:54:36;7.30;99.90
28969;DHT22;16076;51.194;6.642;2022-11-20T12:57:32;7.40;99.90
28969;DHT22;16076;51.194;6.642;2022-11-20T13:03:16;7.20;99.90
28969;DHT22;16076;51.194;6.642;2022-11-20T13:05:57;7.20;99.90
28969;DHT22;16076;51.194;6.642;2022-11-20T13:08:28;7.20;99.90
28969;DHT22;16076;51.194;6.642;2022-11-20T13:11:04;7.30;99.90
28969;DHT22;16076;51.194;6.642;2022-11-20T13:19:35;7.70;99.90
28969;DHT22;16076;51.194;6.642;2022-11-20T13:22:00;7.80;99.90
28969;DHT22;16076;51.194;6.642;2022-11-20T13:24:30;7.70;99.90
28969;DHT22;16076;51.194;6.642;2022-11-20T13:29:31;7.50;99.90
28969;DHT22;16076;51.194;6.642;2022-11-20T13:32:03;7.40;99.90
28969;DHT22;16076;51.194;6.642;2022-11-20T13:34:30;7.30;99.90
28969;DHT22;16076;51.194;6.642;2022-11-20T13:36:58;7.30;99.90
28969;DHT22;16076;51.194;6.642;2022-11-20T13:39:30;7.40;99.90
28969;DHT22;16076;51.194;6.642;2022-11-20T13:42:01;7.50;99.90
28969;DHT22;16076;51.194;6.642;2022-11-20T13:46:58;7.40;99.90
28969;DHT22;16076;51.194;6.642;2022-11-20T13:49:29;7.50;99.90
28969;DHT22;16076;51.194;6.642;2022-11-20T13:52:37;7.50;99.90
28969;DHT22;16076;51.194;6.642;2022-11-20T13:55:19;7.50;99.90
28969;DHT22;16076;51.194;6.642;2022-11-20T14:00:44;7.40;99.90
28969;DHT22;16076;51.194;6.642;2022-11-20T14:03:21;7.60;99.90
28969;DHT22;16076;51.194;6.642;2022-11-20T14:05:54;7.70;99.90
28969;DHT22;16076;51.194;6.642;2022-11-20T14:08:48;7.60;99.90
28969;DHT22;16076;51.194;6.642;2022-11-20T14:11:18;7.60;99.90
28969;DHT22;16076;51.194;6.642;2022-11-20T14:14:00;7.70;99.90
28969;DHT22;16076;51.194;6.642;2022-11-20T14:16:28;7.70;99.90
28969;DHT22;16076;51.194;6.642;2022-11-20T14:18:58;7.60;99.90
28969;DHT22;16076;51.194;6.642;2022-11-20T14:21:24;7.50;99.90
28969;DHT22;16076;51.194;6.642;2022-11-20T14:23:53;7.20;99.90
28969;DHT22;16076;51.194;6.642;2022-11-20T14:26:19;7.10;99.90
28969;DHT22;16076;51.194;6.642;2022-11-20T14:28:50;7.10;99.90
28969;DHT22;16076;51.194;6.642;2022-11-20T14:31:34;7.20;99.90
28969;DHT22;16076;51.194;6.642;2022-11-20T14:34:02;7.20;99.90
28969;DHT22;16076;51.194;6.642;2022-11-20T14:36:27;7.20;99.90
28969;DHT22;16076;51.194;6.642;2022-11-20T14:38:53;7.30;99.90
28969;DHT22;16076;51.194;6.642;2022-11-20T14:41:22;7.10;99.90
28969;DHT22;16076;51.194;6.642;2022-11-20T14:43:58;7.10;99.90
28969;DHT22;16076;51.194;6.642;2022-11-20T14:46:25;7.00;99.90
28969;DHT22;16076;51.194;6.642;2022-11-20T14:48:54;7.10;99.90
28969;DHT22;16076;51.194;6.642;2022-11-20T14:51:38;7.00;99.90
28969;DHT22;16076;51.194;6.642;2022-11-20T14:54:20;7.00;99.90
28969;DHT22;16076;51.194;6.642;2022-11-20T14:59:31;6.90;99.90
28969;DHT22;16076;51.194;6.642;2022-11-20T15:02:09;6.90;99.90
28969;DHT22;16076;51.194;6.642;2022-11-20T15:04:57;6.70;99.90
28969;DHT22;16076;51.194;6.642;2022-11-20T15:07:36;6.80;99.90
28969;DHT22;16076;51.194;6.642;2022-11-20T15:10:11;6.90;99.90
28969;DHT22;16076;51.194;6.642;2022-11-20T15:12:53;6.80;99.90
28969;DHT22;16076;51.194;6.642;2022-11-20T15:18:17;6.80;99.90
28969;DHT22;16076;51.194;6.642;2022-11-20T15:20:44;6.70;99.90
28969;DHT22;16076;51.194;6.642;2022-11-20T15:23:17;6.80;99.90
28969;DHT22;16076;51.194;6.642;2022-11-20T15:25:44;6.60;99.90
28969;DHT22;16076;51.194;6.642;2022-11-20T15:28:21;6.50;99.90
28969;DHT22;16076;51.194;6.642;2022-11-20T15:30:49;6.40;99.90
28969;DHT22;16076;51.194;6.642;2022-11-20T15:33:16;6.50;99.90
28969;DHT22;16076;51.194;6.642;2022-11-20T15:35:42;6.70;99.90
28969;DHT22;16076;51.194;6.642;2022-11-20T15:38:07;6.50;99.90
28969;DHT22;16076;51.194;6.642;2022-11-20T15:40:33;6.50;99.90
28969;DHT22;16076;51.194;6.642;2022-11-20T15:42:59;6.40;99.90
28969;DHT22;16076;51.194;6.642;2022-11-20T15:45:45;6.40;99.90
28969;DHT22;16076;51.194;6.642;2022-11-20T15:48:17;6.40;99.90
28969;DHT22;16076;51.194;6.642;2022-11-20T15:53:31;6.30;99.90
28969;DHT22;16076;51.194;6.642;2022-11-20T15:55:57;6.30;99.90
28969;DHT22;16076;51.194;6.642;2022-11-20T15:58:22;6.30;99.90
28969;DHT22;16076;51.194;6.642;2022-11-20T16:00:49;6.30;99.90
28969;DHT22;16076;51.194;6.642;2022-11-20T16:03:20;6.30;99.90
28969;DHT22;16076;51.194;6.642;2022-11-20T16:05:46;6.20;99.90
28969;DHT22;16076;51.194;6.642;2022-11-20T16:08:12;6.20;99.90
28969;DHT22;16076;51.194;6.642;2022-11-20T16:10:38;6.30;99.90
28969;DHT22;16076;51.194;6.642;2022-11-20T16:13:24;6.30;99.90
28969;DHT22;16076;51.194;6.642;2022-11-20T16:18:44;6.40;99.90
28969;DHT22;16076;51.194;6.642;2022-11-20T16:21:13;6.40;99.90
28969;DHT22;16076;51.194;6.642;2022-11-20T16:23:39;6.40;99.90
28969;DHT22;16076;51.194;6.642;2022-11-20T16:26:16;6.30;99.90
28969;DHT22;16076;51.194;6.642;2022-11-20T16:28:46;6.30;99.90
28969;DHT22;16076;51.194;6.642;2022-11-20T16:31:16;6.20;99.90
28969;DHT22;16076;51.194;6.642;2022-11-20T16:33:42;6.30;99.90
28969;DHT22;16076;51.194;6.642;2022-11-20T16:36:14;6.40;99.90
28969;DHT22;16076;51.194;6.642;2022-11-20T16:38:41;6.40;99.90
28969;DHT22;16076;51.194;6.642;2022-11-20T16:41:07;6.30;99.90
28969;DHT22;16076;51.194;6.642;2022-11-20T16:43:49;6.30;99.90
28969;DHT22;16076;51.194;6.642;2022-11-20T16:46:17;6.30;99.90
28969;DHT22;16076;51.194;6.642;2022-11-20T16:48:45;6.40;99.90
28969;DHT22;16076;51.194;6.642;2022-11-20T16:51:17;6.40;99.90
28969;DHT22;16076;51.194;6.642;2022-11-20T16:53:44;6.50;99.90
28969;DHT22;16076;51.194;6.642;2022-11-20T16:56:15;6.50;99.90
28969;DHT22;16076;51.194;6.642;2022-11-20T16:58:42;6.50;99.90
28969;DHT22;16076;51.194;6.642;2022-11-20T17:01:13;6.50;99.90
28969;DHT22;16076;51.194;6.642;2022-11-20T17:03:40;6.50;99.90
28969;DHT22;16076;51.194;6.642;2022-11-20T17:06:21;6.40;99.90
28969;DHT22;16076;51.194;6.642;2022-11-20T17:08:47;6.40;99.90
28969;DHT22;16076;51.194;6.642;2022-11-20T17:11:15;6.40;99.90
28969;DHT22;16076;51.194;6.642;2022-11-20T17:13:41;6.40;99.90
28969;DHT22;16076;51.194;6.642;2022-11-20T17:16:12;6.40;99.90
28969;DHT22;16076;51.194;6.642;2022-11-20T17:18:38;6.40;99.90
28969;DHT22;16076;51.194;6.642;2022-11-20T17:21:05;6.50;99.90
28969;DHT22;16076;51.194;6.642;2022-11-20T17:23:37;6.50;99.90
28969;DHT22;16076;51.194;6.642;2022-11-20T17:26:10;6.50;99.90
28969;DHT22;16076;51.194;6.642;2022-11-20T17:28:39;6.50;99.90
28969;DHT22;16076;51.194;6.642;2022-11-20T17:31:07;6.50;99.90
28969;DHT22;16076;51.194;6.642;2022-11-20T17:33:38;6.60;99.90
28969;DHT22;16076;51.194;6.642;2022-11-20T17:36:06;6.50;99.90
28969;DHT22;16076;51.194;6.642;2022-11-20T17:38:31;6.60;99.90
28969;DHT22;16076;51.194;6.642;2022-11-20T17:41:05;6.80;99.90
28969;DHT22;16076;51.194;6.642;2022-11-20T17:43:31;6.80;99.90
28969;DHT22;16076;51.194;6.642;2022-11-20T17:45:58;7.00;99.90
28969;DHT22;16076;51.194;6.642;2022-11-20T17:48:24;7.00;99.90